Ana Sayfa
METAR-TAF:

METAR-TAF

Havaalanları :

Waco, Teksas, Amerika Birleşik Devletleri

Enlem: 31-38-16N, Boylam: 097-04-27W, yükseklik: 143 m

Güncel hava durumu gözlemi

Rapor saat 23:55 UTC de 1 saat ve 4 dakika önce yapıldı.
Rüzgar güney/güneydoğudan 14 kt ve 18 kt'a kadar ani rüzgarlar
Sıcaklık 31°C
Nem 49%
Basınç 1014 hPa
Görüş mesafesi: 16.1 km
Açık gökyüzü

METAR: KCNW 252355Z 16014G18KT 10SM SKC 31/19 A2995

Saat: 18:59 (00:59 UTC)


TAF: eksik

4.000'den fazla havaalanı için hava durumu gözlemleri ve tahminleri (METAR ve TAF raporları).

Kullanılabilir istasyonlar harita üzerinde sarı ve kırmızı noktalarla gösterilir.

İstasyonun adını görmek için fareyi noktanın üzerinde gezdirin.

Sonrasında hava gözlem ve tahminlerini görmek için tıklayın.

Haritayı değiştirmek için: yaklaştırmak için siyah artı işaretli yeşil düğmeye ve uzaklaştırmak için de eksi işaretli düğmeye hızla tıklayın; bitişik haritalar için yeşil okları kullanın.


METAR-TAF: